sensor_id;sensor_type;location;lat;lon;timestamp;P1;durP1;ratioP1;P2;durP2;ratioP2
50010;SDS011;35899;50.352;19.390;2022-08-26T00:01:25;14.25;;;6.15;;
50010;SDS011;35899;50.352;19.390;2022-08-26T00:03:52;9.98;;;5.35;;
50010;SDS011;35899;50.352;19.390;2022-08-26T00:06:20;9.88;;;5.05;;
50010;SDS011;35899;50.352;19.390;2022-08-26T00:08:47;12.18;;;4.87;;
50010;SDS011;35899;50.352;19.390;2022-08-26T00:11:14;10.30;;;5.25;;
50010;SDS011;35899;50.352;19.390;2022-08-26T00:13:41;12.50;;;5.78;;
50010;SDS011;35899;50.352;19.390;2022-08-26T00:16:08;8.95;;;5.78;;
50010;SDS011;35899;50.352;19.390;2022-08-26T00:18:36;10.40;;;5.22;;
50010;SDS011;35899;50.352;19.390;2022-08-26T00:21:05;9.43;;;5.33;;
50010;SDS011;35899;50.352;19.390;2022-08-26T00:23:33;11.88;;;5.00;;
50010;SDS011;35899;50.352;19.390;2022-08-26T00:26:02;9.63;;;5.45;;
50010;SDS011;35899;50.352;19.390;2022-08-26T00:28:31;14.05;;;5.40;;
50010;SDS011;35899;50.352;19.390;2022-08-26T00:30:59;12.00;;;5.10;;
50010;SDS011;35899;50.352;19.390;2022-08-26T00:33:26;8.33;;;4.90;;
50010;SDS011;35899;50.352;19.390;2022-08-26T00:35:53;10.28;;;5.50;;
50010;SDS011;35899;50.352;19.390;2022-08-26T00:38:20;11.80;;;5.50;;
50010;SDS011;35899;50.352;19.390;2022-08-26T00:40:51;10.08;;;5.05;;
50010;SDS011;35899;50.352;19.390;2022-08-26T00:43:20;8.38;;;5.30;;
50010;SDS011;35899;50.352;19.390;2022-08-26T00:45:49;11.03;;;5.47;;
50010;SDS011;35899;50.352;19.390;2022-08-26T00:48:20;9.45;;;5.05;;
50010;SDS011;35899;50.352;19.390;2022-08-26T00:50:56;12.23;;;5.22;;
50010;SDS011;35899;50.352;19.390;2022-08-26T00:53:29;12.03;;;5.37;;
50010;SDS011;35899;50.352;19.390;2022-08-26T00:56:05;9.93;;;5.62;;
50010;SDS011;35899;50.352;19.390;2022-08-26T00:58:41;12.55;;;6.50;;
50010;SDS011;35899;50.352;19.390;2022-08-26T01:01:10;12.25;;;5.80;;
50010;SDS011;35899;50.352;19.390;2022-08-26T01:03:37;10.38;;;6.28;;
50010;SDS011;35899;50.352;19.390;2022-08-26T01:06:06;10.68;;;5.65;;
50010;SDS011;35899;50.352;19.390;2022-08-26T01:08:34;12.28;;;6.42;;
50010;SDS011;35899;50.352;19.390;2022-08-26T01:11:01;11.25;;;6.58;;
50010;SDS011;35899;50.352;19.390;2022-08-26T01:13:29;11.63;;;6.10;;
50010;SDS011;35899;50.352;19.390;2022-08-26T01:15:59;10.78;;;6.30;;
50010;SDS011;35899;50.352;19.390;2022-08-26T01:18:30;15.48;;;6.25;;
50010;SDS011;35899;50.352;19.390;2022-08-26T01:23:52;10.53;;;6.20;;
50010;SDS011;35899;50.352;19.390;2022-08-26T01:26:22;9.80;;;5.90;;
50010;SDS011;35899;50.352;19.390;2022-08-26T01:28:55;10.40;;;6.10;;
50010;SDS011;35899;50.352;19.390;2022-08-26T01:31:24;10.80;;;6.53;;
50010;SDS011;35899;50.352;19.390;2022-08-26T01:36:32;11.97;;;5.85;;
50010;SDS011;35899;50.352;19.390;2022-08-26T01:38:59;10.72;;;5.92;;
50010;SDS011;35899;50.352;19.390;2022-08-26T01:41:26;12.37;;;5.47;;
50010;SDS011;35899;50.352;19.390;2022-08-26T01:43:53;14.10;;;6.22;;
50010;SDS011;35899;50.352;19.390;2022-08-26T01:46:22;11.65;;;5.67;;
50010;SDS011;35899;50.352;19.390;2022-08-26T01:48:50;11.95;;;6.35;;
50010;SDS011;35899;50.352;19.390;2022-08-26T01:51:20;10.05;;;6.05;;
50010;SDS011;35899;50.352;19.390;2022-08-26T01:53:48;12.28;;;6.05;;
50010;SDS011;35899;50.352;19.390;2022-08-26T01:56:15;10.53;;;6.03;;
50010;SDS011;35899;50.352;19.390;2022-08-26T01:58:47;9.33;;;5.83;;
50010;SDS011;35899;50.352;19.390;2022-08-26T02:01:20;13.43;;;6.12;;
50010;SDS011;35899;50.352;19.390;2022-08-26T02:06:45;11.20;;;6.70;;
50010;SDS011;35899;50.352;19.390;2022-08-26T02:09:14;10.38;;;6.40;;
50010;SDS011;35899;50.352;19.390;2022-08-26T02:11:43;8.73;;;6.12;;
50010;SDS011;35899;50.352;19.390;2022-08-26T02:16:46;12.68;;;6.50;;
50010;SDS011;35899;50.352;19.390;2022-08-26T02:19:17;14.23;;;5.80;;
50010;SDS011;35899;50.352;19.390;2022-08-26T02:21:48;10.35;;;5.97;;
50010;SDS011;35899;50.352;19.390;2022-08-26T02:24:23;11.93;;;6.58;;
50010;SDS011;35899;50.352;19.390;2022-08-26T02:26:53;10.68;;;6.05;;
50010;SDS011;35899;50.352;19.390;2022-08-26T02:29:23;12.05;;;6.45;;
50010;SDS011;35899;50.352;19.390;2022-08-26T02:31:57;9.13;;;6.37;;
50010;SDS011;35899;50.352;19.390;2022-08-26T02:34:26;12.37;;;6.28;;
50010;SDS011;35899;50.352;19.390;2022-08-26T02:37:03;12.68;;;6.20;;
50010;SDS011;35899;50.352;19.390;2022-08-26T02:39:31;8.03;;;5.60;;
50010;SDS011;35899;50.352;19.390;2022-08-26T02:42:01;10.75;;;6.17;;
50010;SDS011;35899;50.352;19.390;2022-08-26T02:44:30;9.55;;;5.85;;
50010;SDS011;35899;50.352;19.390;2022-08-26T02:46:57;10.43;;;5.60;;
50010;SDS011;35899;50.352;19.390;2022-08-26T02:49:25;12.28;;;6.17;;
50010;SDS011;35899;50.352;19.390;2022-08-26T02:51:55;7.78;;;5.05;;
50010;SDS011;35899;50.352;19.390;2022-08-26T02:54:23;15.20;;;5.92;;
50010;SDS011;35899;50.352;19.390;2022-08-26T02:56:50;10.70;;;5.83;;
50010;SDS011;35899;50.352;19.390;2022-08-26T02:59:18;11.40;;;5.65;;
50010;SDS011;35899;50.352;19.390;2022-08-26T03:01:45;10.70;;;5.60;;
50010;SDS011;35899;50.352;19.390;2022-08-26T03:04:14;10.30;;;5.20;;
50010;SDS011;35899;50.352;19.390;2022-08-26T03:06:41;13.58;;;5.55;;
50010;SDS011;35899;50.352;19.390;2022-08-26T03:09:08;11.53;;;5.30;;
50010;SDS011;35899;50.352;19.390;2022-08-26T03:11:35;13.83;;;5.87;;
50010;SDS011;35899;50.352;19.390;2022-08-26T03:14:03;11.50;;;5.25;;
50010;SDS011;35899;50.352;19.390;2022-08-26T03:16:32;10.13;;;5.75;;
50010;SDS011;35899;50.352;19.390;2022-08-26T03:19:01;10.23;;;5.42;;
50010;SDS011;35899;50.352;19.390;2022-08-26T03:21:30;10.28;;;5.35;;
50010;SDS011;35899;50.352;19.390;2022-08-26T03:23:58;9.60;;;4.85;;
50010;SDS011;35899;50.352;19.390;2022-08-26T03:26:26;10.70;;;4.92;;
50010;SDS011;35899;50.352;19.390;2022-08-26T03:28:54;10.03;;;5.20;;
50010;SDS011;35899;50.352;19.390;2022-08-26T03:31:39;8.83;;;4.55;;
50010;SDS011;35899;50.352;19.390;2022-08-26T03:34:07;10.50;;;5.22;;
50010;SDS011;35899;50.352;19.390;2022-08-26T03:36:34;9.58;;;4.97;;
50010;SDS011;35899;50.352;19.390;2022-08-26T03:39:02;13.43;;;5.40;;
50010;SDS011;35899;50.352;19.390;2022-08-26T03:41:32;10.10;;;5.30;;
50010;SDS011;35899;50.352;19.390;2022-08-26T03:44:01;9.35;;;4.67;;
50010;SDS011;35899;50.352;19.390;2022-08-26T03:49:00;13.93;;;5.92;;
50010;SDS011;35899;50.352;19.390;2022-08-26T03:51:30;12.07;;;5.12;;
50010;SDS011;35899;50.352;19.390;2022-08-26T03:53:59;11.85;;;5.47;;
50010;SDS011;35899;50.352;19.390;2022-08-26T03:56:28;9.40;;;5.33;;
50010;SDS011;35899;50.352;19.390;2022-08-26T03:58:58;15.28;;;5.90;;
50010;SDS011;35899;50.352;19.390;2022-08-26T04:01:27;7.60;;;4.90;;
50010;SDS011;35899;50.352;19.390;2022-08-26T04:03:55;10.58;;;5.33;;
50010;SDS011;35899;50.352;19.390;2022-08-26T04:06:24;11.68;;;5.80;;
50010;SDS011;35899;50.352;19.390;2022-08-26T04:09:04;10.55;;;5.25;;
50010;SDS011;35899;50.352;19.390;2022-08-26T04:11:36;7.83;;;5.20;;
50010;SDS011;35899;50.352;19.390;2022-08-26T04:14:05;9.18;;;5.62;;
50010;SDS011;35899;50.352;19.390;2022-08-26T04:16:38;9.00;;;4.80;;
50010;SDS011;35899;50.352;19.390;2022-08-26T04:19:08;9.58;;;5.25;;
50010;SDS011;35899;50.352;19.390;2022-08-26T04:21:37;8.10;;;4.80;;
50010;SDS011;35899;50.352;19.390;2022-08-26T04:24:07;8.23;;;4.85;;
50010;SDS011;35899;50.352;19.390;2022-08-26T04:26:36;9.93;;;5.03;;
50010;SDS011;35899;50.352;19.390;2022-08-26T04:29:05;9.38;;;5.20;;
50010;SDS011;35899;50.352;19.390;2022-08-26T04:31:38;9.70;;;5.30;;
50010;SDS011;35899;50.352;19.390;2022-08-26T04:34:06;8.30;;;5.22;;
50010;SDS011;35899;50.352;19.390;2022-08-26T04:36:33;9.73;;;5.25;;
50010;SDS011;35899;50.352;19.390;2022-08-26T04:39:00;8.38;;;5.47;;
50010;SDS011;35899;50.352;19.390;2022-08-26T04:41:30;7.90;;;4.92;;
50010;SDS011;35899;50.352;19.390;2022-08-26T04:43:58;12.25;;;5.85;;
50010;SDS011;35899;50.352;19.390;2022-08-26T04:46:26;9.33;;;4.53;;
50010;SDS011;35899;50.352;19.390;2022-08-26T04:48:54;7.58;;;4.95;;
50010;SDS011;35899;50.352;19.390;2022-08-26T04:51:21;8.20;;;4.45;;
50010;SDS011;35899;50.352;19.390;2022-08-26T04:53:50;10.15;;;5.17;;
50010;SDS011;35899;50.352;19.390;2022-08-26T04:56:17;8.13;;;4.95;;
50010;SDS011;35899;50.352;19.390;2022-08-26T04:58:44;6.08;;;5.10;;
50010;SDS011;35899;50.352;19.390;2022-08-26T05:01:11;7.42;;;4.83;;
50010;SDS011;35899;50.352;19.390;2022-08-26T05:03:38;7.37;;;4.58;;
50010;SDS011;35899;50.352;19.390;2022-08-26T05:06:05;11.60;;;5.25;;
50010;SDS011;35899;50.352;19.390;2022-08-26T05:08:32;8.73;;;5.20;;
50010;SDS011;35899;50.352;19.390;2022-08-26T05:11:02;8.70;;;4.10;;
50010;SDS011;35899;50.352;19.390;2022-08-26T05:13:30;10.95;;;4.80;;
50010;SDS011;35899;50.352;19.390;2022-08-26T05:16:00;9.35;;;4.62;;
50010;SDS011;35899;50.352;19.390;2022-08-26T05:18:31;10.00;;;4.12;;
50010;SDS011;35899;50.352;19.390;2022-08-26T05:21:00;9.03;;;4.47;;
50010;SDS011;35899;50.352;19.390;2022-08-26T05:23:28;8.65;;;4.00;;
50010;SDS011;35899;50.352;19.390;2022-08-26T05:25:57;8.53;;;4.45;;
50010;SDS011;35899;50.352;19.390;2022-08-26T05:28:26;7.45;;;3.90;;
50010;SDS011;35899;50.352;19.390;2022-08-26T05:30:55;7.25;;;3.77;;
50010;SDS011;35899;50.352;19.390;2022-08-26T05:33:22;8.18;;;4.05;;
50010;SDS011;35899;50.352;19.390;2022-08-26T05:35:49;9.15;;;4.10;;
50010;SDS011;35899;50.352;19.390;2022-08-26T05:38:18;6.40;;;3.95;;
50010;SDS011;35899;50.352;19.390;2022-08-26T05:40:48;8.83;;;4.50;;
50010;SDS011;35899;50.352;19.390;2022-08-26T05:43:16;5.75;;;3.55;;
50010;SDS011;35899;50.352;19.390;2022-08-26T05:45:45;6.50;;;3.72;;
50010;SDS011;35899;50.352;19.390;2022-08-26T05:48:15;9.83;;;3.60;;
50010;SDS011;35899;50.352;19.390;2022-08-26T05:53:17;7.40;;;3.55;;
50010;SDS011;35899;50.352;19.390;2022-08-26T05:55:47;7.92;;;3.58;;
50010;SDS011;35899;50.352;19.390;2022-08-26T05:58:18;6.58;;;3.33;;
50010;SDS011;35899;50.352;19.390;2022-08-26T06:01:00;7.33;;;3.80;;
50010;SDS011;35899;50.352;19.390;2022-08-26T06:03:36;10.53;;;3.50;;
50010;SDS011;35899;50.352;19.390;2022-08-26T06:06:05;6.47;;;3.35;;
50010;SDS011;35899;50.352;19.390;2022-08-26T06:08:40;6.87;;;3.58;;
50010;SDS011;35899;50.352;19.390;2022-08-26T06:11:08;8.25;;;3.83;;
50010;SDS011;35899;50.352;19.390;2022-08-26T06:13:39;6.30;;;3.62;;
50010;SDS011;35899;50.352;19.390;2022-08-26T06:16:07;8.08;;;3.77;;
50010;SDS011;35899;50.352;19.390;2022-08-26T06:18:38;7.83;;;3.72;;
50010;SDS011;35899;50.352;19.390;2022-08-26T06:21:19;7.15;;;3.40;;
50010;SDS011;35899;50.352;19.390;2022-08-26T06:23:53;7.60;;;3.22;;
50010;SDS011;35899;50.352;19.390;2022-08-26T06:26:45;10.80;;;3.62;;
50010;SDS011;35899;50.352;19.390;2022-08-26T06:29:17;8.28;;;3.77;;
50010;SDS011;35899;50.352;19.390;2022-08-26T06:31:45;5.78;;;3.20;;
50010;SDS011;35899;50.352;19.390;2022-08-26T06:34:12;9.30;;;3.90;;
50010;SDS011;35899;50.352;19.390;2022-08-26T06:36:40;7.70;;;4.00;;
50010;SDS011;35899;50.352;19.390;2022-08-26T06:39:11;8.58;;;3.85;;
50010;SDS011;35899;50.352;19.390;2022-08-26T06:41:40;7.75;;;3.80;;
50010;SDS011;35899;50.352;19.390;2022-08-26T06:44:10;6.03;;;3.52;;
50010;SDS011;35899;50.352;19.390;2022-08-26T06:46:40;6.53;;;3.30;;
50010;SDS011;35899;50.352;19.390;2022-08-26T06:49:09;10.65;;;3.85;;
50010;SDS011;35899;50.352;19.390;2022-08-26T06:51:38;9.48;;;3.75;;
50010;SDS011;35899;50.352;19.390;2022-08-26T06:54:06;11.35;;;3.77;;
50010;SDS011;35899;50.352;19.390;2022-08-26T06:56:35;13.03;;;4.28;;
50010;SDS011;35899;50.352;19.390;2022-08-26T06:59:07;11.03;;;3.22;;
50010;SDS011;35899;50.352;19.390;2022-08-26T07:01:37;8.23;;;4.08;;
50010;SDS011;35899;50.352;19.390;2022-08-26T07:04:09;11.38;;;3.50;;
50010;SDS011;35899;50.352;19.390;2022-08-26T07:06:38;8.23;;;3.30;;
50010;SDS011;35899;50.352;19.390;2022-08-26T07:09:06;13.22;;;4.30;;
50010;SDS011;35899;50.352;19.390;2022-08-26T07:11:36;11.00;;;3.35;;
50010;SDS011;35899;50.352;19.390;2022-08-26T07:14:04;8.83;;;3.50;;
50010;SDS011;35899;50.352;19.390;2022-08-26T07:16:32;9.28;;;3.77;;
50010;SDS011;35899;50.352;19.390;2022-08-26T07:19:00;11.57;;;3.58;;
50010;SDS011;35899;50.352;19.390;2022-08-26T07:21:27;9.48;;;4.03;;
50010;SDS011;35899;50.352;19.390;2022-08-26T07:23:54;8.70;;;4.03;;
50010;SDS011;35899;50.352;19.390;2022-08-26T07:26:22;9.98;;;3.50;;
50010;SDS011;35899;50.352;19.390;2022-08-26T07:28:53;12.18;;;3.20;;
50010;SDS011;35899;50.352;19.390;2022-08-26T07:31:22;7.97;;;3.55;;
50010;SDS011;35899;50.352;19.390;2022-08-26T07:33:51;7.95;;;3.15;;
50010;SDS011;35899;50.352;19.390;2022-08-26T07:36:19;12.68;;;3.98;;
50010;SDS011;35899;50.352;19.390;2022-08-26T07:38:47;11.40;;;3.30;;
50010;SDS011;35899;50.352;19.390;2022-08-26T07:41:16;7.95;;;3.08;;
50010;SDS011;35899;50.352;19.390;2022-08-26T07:43:47;9.25;;;3.25;;
50010;SDS011;35899;50.352;19.390;2022-08-26T07:46:15;8.93;;;2.90;;
50010;SDS011;35899;50.352;19.390;2022-08-26T07:51:15;10.38;;;3.17;;
50010;SDS011;35899;50.352;19.390;2022-08-26T07:53:45;9.88;;;2.65;;
50010;SDS011;35899;50.352;19.390;2022-08-26T07:56:13;10.32;;;3.02;;
50010;SDS011;35899;50.352;19.390;2022-08-26T07:58:40;8.63;;;3.08;;
50010;SDS011;35899;50.352;19.390;2022-08-26T08:01:07;8.35;;;3.33;;
50010;SDS011;35899;50.352;19.390;2022-08-26T08:03:35;8.23;;;3.20;;
50010;SDS011;35899;50.352;19.390;2022-08-26T08:06:03;9.88;;;3.10;;
50010;SDS011;35899;50.352;19.390;2022-08-26T08:08:30;9.68;;;3.22;;
50010;SDS011;35899;50.352;19.390;2022-08-26T08:10:57;7.67;;;2.62;;
50010;SDS011;35899;50.352;19.390;2022-08-26T08:13:24;10.72;;;2.92;;
50010;SDS011;35899;50.352;19.390;2022-08-26T08:15:51;8.98;;;2.92;;
50010;SDS011;35899;50.352;19.390;2022-08-26T08:18:19;9.60;;;3.00;;
50010;SDS011;35899;50.352;19.390;2022-08-26T08:20:47;7.03;;;2.98;;
50010;SDS011;35899;50.352;19.390;2022-08-26T08:23:15;9.60;;;2.90;;
50010;SDS011;35899;50.352;19.390;2022-08-26T08:25:42;6.90;;;2.72;;
50010;SDS011;35899;50.352;19.390;2022-08-26T08:28:09;7.05;;;2.95;;
50010;SDS011;35899;50.352;19.390;2022-08-26T08:30:37;6.58;;;2.67;;
50010;SDS011;35899;50.352;19.390;2022-08-26T08:33:06;7.40;;;2.72;;
50010;SDS011;35899;50.352;19.390;2022-08-26T08:35:33;8.63;;;3.42;;
50010;SDS011;35899;50.352;19.390;2022-08-26T08:38:00;6.15;;;2.42;;
50010;SDS011;35899;50.352;19.390;2022-08-26T08:40:28;5.42;;;2.58;;
50010;SDS011;35899;50.352;19.390;2022-08-26T08:43:02;10.15;;;2.72;;
50010;SDS011;35899;50.352;19.390;2022-08-26T08:48:24;9.83;;;3.02;;
50010;SDS011;35899;50.352;19.390;2022-08-26T08:54:09;8.78;;;2.72;;
50010;SDS011;35899;50.352;19.390;2022-08-26T08:56:38;7.85;;;2.30;;
50010;SDS011;35899;50.352;19.390;2022-08-26T08:59:13;10.70;;;2.08;;
50010;SDS011;35899;50.352;19.390;2022-08-26T09:02:09;8.13;;;2.33;;
50010;SDS011;35899;50.352;19.390;2022-08-26T09:07:51;11.28;;;2.22;;
50010;SDS011;35899;50.352;19.390;2022-08-26T09:10:29;4.90;;;2.20;;
50010;SDS011;35899;50.352;19.390;2022-08-26T09:12:57;9.88;;;1.80;;
50010;SDS011;35899;50.352;19.390;2022-08-26T09:15:28;6.08;;;2.15;;
50010;SDS011;35899;50.352;19.390;2022-08-26T09:21:10;6.17;;;1.40;;
50010;SDS011;35899;50.352;19.390;2022-08-26T09:23:40;6.97;;;1.90;;
50010;SDS011;35899;50.352;19.390;2022-08-26T09:26:13;6.03;;;1.92;;
50010;SDS011;35899;50.352;19.390;2022-08-26T09:28:46;5.92;;;1.72;;
50010;SDS011;35899;50.352;19.390;2022-08-26T09:31:37;7.70;;;1.70;;
50010;SDS011;35899;50.352;19.390;2022-08-26T09:34:19;9.25;;;1.72;;
50010;SDS011;35899;50.352;19.390;2022-08-26T09:36:52;6.97;;;1.70;;
50010;SDS011;35899;50.352;19.390;2022-08-26T09:42:08;12.35;;;1.77;;
50010;SDS011;35899;50.352;19.390;2022-08-26T09:47:31;10.08;;;1.92;;
50010;SDS011;35899;50.352;19.390;2022-08-26T09:55:48;8.80;;;1.67;;
50010;SDS011;35899;50.352;19.390;2022-08-26T10:03:50;7.45;;;1.50;;
50010;SDS011;35899;50.352;19.390;2022-08-26T10:06:22;9.20;;;1.60;;
50010;SDS011;35899;50.352;19.390;2022-08-26T10:08:55;8.05;;;1.55;;
50010;SDS011;35899;50.352;19.390;2022-08-26T10:14:09;6.00;;;1.52;;
50010;SDS011;35899;50.352;19.390;2022-08-26T10:17:00;7.45;;;1.62;;
50010;SDS011;35899;50.352;19.390;2022-08-26T10:19:34;8.30;;;1.60;;
50010;SDS011;35899;50.352;19.390;2022-08-26T10:22:09;10.63;;;1.62;;
50010;SDS011;35899;50.352;19.390;2022-08-26T10:24:48;9.00;;;1.53;;
50010;SDS011;35899;50.352;19.390;2022-08-26T10:27:23;10.88;;;1.67;;
50010;SDS011;35899;50.352;19.390;2022-08-26T10:30:15;6.60;;;1.30;;
50010;SDS011;35899;50.352;19.390;2022-08-26T10:32:47;5.42;;;1.40;;
50010;SDS011;35899;50.352;19.390;2022-08-26T10:35:23;6.62;;;1.25;;
50010;SDS011;35899;50.352;19.390;2022-08-26T10:37:55;5.55;;;1.67;;
50010;SDS011;35899;50.352;19.390;2022-08-26T10:40:34;10.48;;;1.45;;
50010;SDS011;35899;50.352;19.390;2022-08-26T10:43:21;7.17;;;1.40;;
50010;SDS011;35899;50.352;19.390;2022-08-26T10:46:04;6.62;;;1.45;;
50010;SDS011;35899;50.352;19.390;2022-08-26T10:48:42;6.65;;;1.52;;
50010;SDS011;35899;50.352;19.390;2022-08-26T10:51:28;6.95;;;1.52;;
50010;SDS011;35899;50.352;19.390;2022-08-26T10:54:07;5.12;;;1.20;;
50010;SDS011;35899;50.352;19.390;2022-08-26T10:56:49;8.45;;;1.20;;
50010;SDS011;35899;50.352;19.390;2022-08-26T11:05:20;6.45;;;1.45;;
50010;SDS011;35899;50.352;19.390;2022-08-26T11:07:49;7.53;;;1.70;;
50010;SDS011;35899;50.352;19.390;2022-08-26T11:13:12;10.82;;;1.62;;
50010;SDS011;35899;50.352;19.390;2022-08-26T11:30:05;2.83;;;1.10;;
50010;SDS011;35899;50.352;19.390;2022-08-26T11:38:19;2.98;;;1.45;;
50010;SDS011;35899;50.352;19.390;2022-08-26T11:40:58;4.50;;;1.10;;
50010;SDS011;35899;50.352;19.390;2022-08-26T11:43:37;3.98;;;1.00;;
50010;SDS011;35899;50.352;19.390;2022-08-26T11:46:07;4.95;;;1.10;;
50010;SDS011;35899;50.352;19.390;2022-08-26T11:51:09;3.77;;;1.20;;
50010;SDS011;35899;50.352;19.390;2022-08-26T11:53:41;5.80;;;1.35;;
50010;SDS011;35899;50.352;19.390;2022-08-26T11:59:01;4.60;;;1.35;;
50010;SDS011;35899;50.352;19.390;2022-08-26T12:01:33;3.75;;;1.35;;
50010;SDS011;35899;50.352;19.390;2022-08-26T12:04:05;6.22;;;1.20;;
50010;SDS011;35899;50.352;19.390;2022-08-26T12:06:43;3.72;;;1.00;;
50010;SDS011;35899;50.352;19.390;2022-08-26T12:17:44;9.58;;;1.67;;
50010;SDS011;35899;50.352;19.390;2022-08-26T12:28:47;3.98;;;1.30;;
50010;SDS011;35899;50.352;19.390;2022-08-26T12:33:59;5.22;;;1.40;;
50010;SDS011;35899;50.352;19.390;2022-08-26T12:39:12;6.53;;;1.50;;
50010;SDS011;35899;50.352;19.390;2022-08-26T12:50:04;5.28;;;1.70;;
50010;SDS011;35899;50.352;19.390;2022-08-26T12:52:39;4.75;;;1.50;;
50010;SDS011;35899;50.352;19.390;2022-08-26T12:55:22;4.00;;;1.57;;
50010;SDS011;35899;50.352;19.390;2022-08-26T13:00:49;4.53;;;1.42;;
50010;SDS011;35899;50.352;19.390;2022-08-26T13:06:08;3.72;;;1.60;;
50010;SDS011;35899;50.352;19.390;2022-08-26T13:08:44;3.45;;;1.40;;
50010;SDS011;35899;50.352;19.390;2022-08-26T13:11:24;3.98;;;1.65;;
50010;SDS011;35899;50.352;19.390;2022-08-26T13:14:05;5.37;;;1.40;;
50010;SDS011;35899;50.352;19.390;2022-08-26T13:16:35;5.45;;;1.52;;
50010;SDS011;35899;50.352;19.390;2022-08-26T13:19:05;7.65;;;1.75;;
50010;SDS011;35899;50.352;19.390;2022-08-26T13:21:39;4.60;;;1.92;;
50010;SDS011;35899;50.352;19.390;2022-08-26T13:24:13;3.87;;;1.80;;
50010;SDS011;35899;50.352;19.390;2022-08-26T13:26:44;7.08;;;2.12;;
50010;SDS011;35899;50.352;19.390;2022-08-26T13:29:14;4.33;;;1.85;;
50010;SDS011;35899;50.352;19.390;2022-08-26T13:31:43;2.65;;;1.82;;
50010;SDS011;35899;50.352;19.390;2022-08-26T13:34:12;7.08;;;1.87;;
50010;SDS011;35899;50.352;19.390;2022-08-26T13:36:45;4.03;;;1.90;;
50010;SDS011;35899;50.352;19.390;2022-08-26T13:39:13;3.87;;;2.00;;
50010;SDS011;35899;50.352;19.390;2022-08-26T13:41:42;5.55;;;2.22;;
50010;SDS011;35899;50.352;19.390;2022-08-26T13:44:09;4.78;;;1.80;;
50010;SDS011;35899;50.352;19.390;2022-08-26T13:46:37;4.67;;;2.15;;
50010;SDS011;35899;50.352;19.390;2022-08-26T13:49:04;3.90;;;2.35;;
50010;SDS011;35899;50.352;19.390;2022-08-26T13:51:32;6.62;;;2.33;;
50010;SDS011;35899;50.352;19.390;2022-08-26T13:54:00;4.97;;;2.17;;
50010;SDS011;35899;50.352;19.390;2022-08-26T13:56:27;5.67;;;2.00;;
50010;SDS011;35899;50.352;19.390;2022-08-26T13:58:56;4.28;;;2.40;;
50010;SDS011;35899;50.352;19.390;2022-08-26T14:01:25;6.08;;;1.82;;
50010;SDS011;35899;50.352;19.390;2022-08-26T14:03:55;6.45;;;2.10;;
50010;SDS011;35899;50.352;19.390;2022-08-26T14:06:23;5.12;;;1.62;;
50010;SDS011;35899;50.352;19.390;2022-08-26T14:08:50;3.98;;;1.92;;
50010;SDS011;35899;50.352;19.390;2022-08-26T14:11:17;3.90;;;2.00;;
50010;SDS011;35899;50.352;19.390;2022-08-26T14:13:44;3.50;;;1.82;;
50010;SDS011;35899;50.352;19.390;2022-08-26T14:16:13;1.90;;;1.55;;
50010;SDS011;35899;50.352;19.390;2022-08-26T14:18:56;4.20;;;1.80;;
50010;SDS011;35899;50.352;19.390;2022-08-26T14:21:26;4.00;;;1.98;;
50010;SDS011;35899;50.352;19.390;2022-08-26T14:23:56;4.60;;;2.25;;
50010;SDS011;35899;50.352;19.390;2022-08-26T14:26:23;3.70;;;1.42;;
50010;SDS011;35899;50.352;19.390;2022-08-26T14:28:50;5.00;;;2.00;;
50010;SDS011;35899;50.352;19.390;2022-08-26T14:31:19;6.00;;;2.25;;
50010;SDS011;35899;50.352;19.390;2022-08-26T14:33:48;3.65;;;1.70;;
50010;SDS011;35899;50.352;19.390;2022-08-26T14:36:15;5.20;;;1.80;;
50010;SDS011;35899;50.352;19.390;2022-08-26T14:39:06;6.12;;;1.87;;
50010;SDS011;35899;50.352;19.390;2022-08-26T14:44:19;2.52;;;1.85;;
50010;SDS011;35899;50.352;19.390;2022-08-26T14:46:50;4.50;;;1.80;;
50010;SDS011;35899;50.352;19.390;2022-08-26T14:49:18;5.45;;;1.67;;
50010;SDS011;35899;50.352;19.390;2022-08-26T14:51:47;4.50;;;1.72;;
50010;SDS011;35899;50.352;19.390;2022-08-26T14:54:15;9.83;;;2.37;;
50010;SDS011;35899;50.352;19.390;2022-08-26T14:56:48;5.45;;;2.05;;
50010;SDS011;35899;50.352;19.390;2022-08-26T14:59:22;5.87;;;2.08;;
50010;SDS011;35899;50.352;19.390;2022-08-26T15:01:52;3.92;;;1.92;;
50010;SDS011;35899;50.352;19.390;2022-08-26T15:04:21;6.28;;;1.80;;
50010;SDS011;35899;50.352;19.390;2022-08-26T15:06:49;4.50;;;1.90;;
50010;SDS011;35899;50.352;19.390;2022-08-26T15:09:18;7.67;;;2.15;;
50010;SDS011;35899;50.352;19.390;2022-08-26T15:11:46;2.55;;;1.72;;
50010;SDS011;35899;50.352;19.390;2022-08-26T15:14:13;5.12;;;2.20;;
50010;SDS011;35899;50.352;19.390;2022-08-26T15:16:41;3.55;;;2.05;;
50010;SDS011;35899;50.352;19.390;2022-08-26T15:19:08;6.45;;;2.33;;
50010;SDS011;35899;50.352;19.390;2022-08-26T15:21:35;6.50;;;2.72;;
50010;SDS011;35899;50.352;19.390;2022-08-26T15:24:03;3.67;;;2.52;;
50010;SDS011;35899;50.352;19.390;2022-08-26T15:26:31;4.30;;;2.12;;
50010;SDS011;35899;50.352;19.390;2022-08-26T15:28:59;6.15;;;2.10;;
50010;SDS011;35899;50.352;19.390;2022-08-26T15:31:27;4.08;;;2.12;;
50010;SDS011;35899;50.352;19.390;2022-08-26T15:33:57;7.42;;;2.50;;
50010;SDS011;35899;50.352;19.390;2022-08-26T15:36:28;6.40;;;2.55;;
50010;SDS011;35899;50.352;19.390;2022-08-26T15:38:58;3.83;;;2.10;;
50010;SDS011;35899;50.352;19.390;2022-08-26T15:41:26;6.75;;;2.33;;
50010;SDS011;35899;50.352;19.390;2022-08-26T15:43:54;5.87;;;1.92;;
50010;SDS011;35899;50.352;19.390;2022-08-26T15:46:22;6.92;;;2.10;;
50010;SDS011;35899;50.352;19.390;2022-08-26T15:48:49;5.25;;;2.12;;
50010;SDS011;35899;50.352;19.390;2022-08-26T15:53:57;5.62;;;2.52;;
50010;SDS011;35899;50.352;19.390;2022-08-26T15:56:25;5.17;;;2.05;;
50010;SDS011;35899;50.352;19.390;2022-08-26T15:58:55;4.83;;;2.47;;
50010;SDS011;35899;50.352;19.390;2022-08-26T16:01:22;4.15;;;2.37;;
50010;SDS011;35899;50.352;19.390;2022-08-26T16:03:51;5.00;;;2.42;;
50010;SDS011;35899;50.352;19.390;2022-08-26T16:06:21;4.25;;;2.30;;
50010;SDS011;35899;50.352;19.390;2022-08-26T16:08:52;6.70;;;2.40;;
50010;SDS011;35899;50.352;19.390;2022-08-26T16:11:21;8.40;;;5.22;;
50010;SDS011;35899;50.352;19.390;2022-08-26T16:13:48;9.98;;;5.10;;
50010;SDS011;35899;50.352;19.390;2022-08-26T16:16:16;8.00;;;4.40;;
50010;SDS011;35899;50.352;19.390;2022-08-26T16:18:43;13.60;;;7.40;;
50010;SDS011;35899;50.352;19.390;2022-08-26T16:21:18;17.12;;;8.45;;
50010;SDS011;35899;50.352;19.390;2022-08-26T16:23:48;13.58;;;6.62;;
50010;SDS011;35899;50.352;19.390;2022-08-26T16:26:17;10.30;;;4.60;;
50010;SDS011;35899;50.352;19.390;2022-08-26T16:28:49;7.53;;;3.08;;
50010;SDS011;35899;50.352;19.390;2022-08-26T16:31:16;7.50;;;4.67;;
50010;SDS011;35899;50.352;19.390;2022-08-26T16:33:46;11.03;;;5.45;;
50010;SDS011;35899;50.352;19.390;2022-08-26T16:36:13;12.28;;;5.95;;
50010;SDS011;35899;50.352;19.390;2022-08-26T16:38:42;16.27;;;6.30;;
50010;SDS011;35899;50.352;19.390;2022-08-26T16:41:17;18.42;;;7.75;;
50010;SDS011;35899;50.352;19.390;2022-08-26T16:43:44;17.00;;;8.98;;
50010;SDS011;35899;50.352;19.390;2022-08-26T16:46:12;17.55;;;9.40;;
50010;SDS011;35899;50.352;19.390;2022-08-26T16:48:41;16.87;;;7.33;;
50010;SDS011;35899;50.352;19.390;2022-08-26T16:51:14;15.35;;;6.95;;
50010;SDS011;35899;50.352;19.390;2022-08-26T16:53:44;11.25;;;5.55;;
50010;SDS011;35899;50.352;19.390;2022-08-26T16:56:12;10.30;;;4.97;;